African Loon — 3EFF9 — position and weather

sailwx.info

Track history (hours):
 
Tides and Currents Weather Stations Pressure Air Temp Water Temp Dewpoint Dewpoint Depression Visibility Wind Speed Wind Dir Waves Ship Positions

African Loon

Last reported at 2017-Jan-17 12:33 UTC. Time now 2017-Jan-17 12:57 UTC.
Position N 39°54' W 075°08'.

Length 200 m; draft 6.7 m.

Type: Cargo ship. MMSI: 374319000.

Date/timePositionNaut miles runAvg speedWind from/ knotsBaromVisibWave heightAir tempDewpointWater temp
2017-Jan-17 12:33N 39°54' W 075°08'0 0.0
2017-Jan-17 11:33N 39°54' W 075°08'0 0.0
2017-Jan-17 10:33N 39°54' W 075°08'0 0.0
2017-Jan-17 09:33N 39°54' W 075°08'0 0.0
2017-Jan-17 08:33N 39°54' W 075°08'0 0.0
2017-Jan-17 07:33N 39°54' W 075°08'0 0.0
2017-Jan-17 06:33N 39°54' W 075°08'0 0.0
2017-Jan-17 05:33N 39°54' W 075°08'0 0.0
2017-Jan-17 04:33N 39°54' W 075°08'0 0.0
2017-Jan-17 03:32N 39°54' W 075°08'0 0.0
2017-Jan-17 02:29N 39°54' W 075°08'0 0.0
2017-Jan-17 01:24N 39°54' W 075°08'0 0.0
2017-Jan-17 00:33N 39°54' W 075°08'0 0.0
2017-Jan-16 23:28N 39°54' W 075°08'0 0.0
2017-Jan-16 22:31N 39°54' W 075°08'0 0.0
2017-Jan-16 21:33N 39°54' W 075°08'0 0.0
2017-Jan-16 20:33N 39°54' W 075°08'0 0.0
2017-Jan-16 19:33N 39°54' W 075°08'0 0.0
2017-Jan-16 18:33N 39°54' W 075°08'0 0.0
2017-Jan-16 17:33N 39°54' W 075°08'0 0.0
2017-Jan-16 16:33N 39°54' W 075°08'0 0.0
2017-Jan-16 15:33N 39°54' W 075°08'0 0.0
2017-Jan-16 14:30N 39°54' W 075°08'0 0.0
2017-Jan-16 13:33N 39°54' W 075°08'0 0.0
2017-Jan-16 12:33N 39°54' W 075°08'0 0.0
2017-Jan-16 11:33N 39°54' W 075°08'0 0.0
2017-Jan-16 10:33N 39°54' W 075°08'0 0.0
2017-Jan-16 09:33N 39°54' W 075°08'0 0.0
2017-Jan-16 08:33N 39°54' W 075°08'0 0.0
2017-Jan-16 07:33N 39°54' W 075°08'0 0.0
2017-Jan-16 06:33N 39°54' W 075°08'0 0.0
2017-Jan-16 05:33N 39°54' W 075°08'0 0.0
2017-Jan-16 04:33N 39°54' W 075°08'0 0.0
2017-Jan-16 03:33N 39°54' W 075°08'0 0.0
2017-Jan-16 02:33N 39°54' W 075°08'0 0.0
2017-Jan-16 01:33N 39°54' W 075°08'0 0.0
2017-Jan-16 00:33N 39°54' W 075°08'0 0.0
2017-Jan-15 23:33N 39°54' W 075°08'0 0.0
2017-Jan-15 22:33N 39°54' W 075°08'0 0.0
2017-Jan-15 21:33N 39°54' W 075°08'0 0.0
2017-Jan-15 20:33N 39°54' W 075°08'0 0.0
2017-Jan-15 19:33N 39°54' W 075°08'0 0.0
2017-Jan-15 18:33N 39°54' W 075°08'0 0.0
2017-Jan-15 17:33N 39°54' W 075°08'0 0.0
2017-Jan-15 16:33N 39°54' W 075°08'0 0.0
2017-Jan-15 15:33N 39°54' W 075°08'0 0.0
2017-Jan-15 14:33N 39°54' W 075°08'0 0.0
2017-Jan-15 13:33N 39°54' W 075°08'0 0.0
2017-Jan-15 12:12N 39°54' W 075°08'0 0.0
2017-Jan-15 11:33N 39°54' W 075°08'0 0.0
2017-Jan-15 10:33N 39°54' W 075°08'0 0.0
2017-Jan-15 09:33N 39°54' W 075°08'0 0.0
2017-Jan-15 08:33N 39°54' W 075°08'0 0.0
2017-Jan-15 07:33N 39°54' W 075°08'0 0.0
2017-Jan-15 06:30N 39°54' W 075°08'0 0.0
2017-Jan-15 05:33N 39°54' W 075°08'0 0.0
2017-Jan-15 04:33N 39°54' W 075°08'0 0.0
2017-Jan-15 03:33N 39°54' W 075°08'0 0.0
2017-Jan-15 02:33N 39°54' W 075°08'0 0.0
2017-Jan-15 01:33N 39°54' W 075°08'1 1.0
2017-Jan-15 00:33N 39°53' W 075°08'9 8.8
2017-Jan-14 23:33N 39°51' W 075°20'1010.1
2017-Jan-14 22:33N 39°45' W 075°30'1110.7
2017-Jan-14 21:33N 39°34' W 075°33'1111.1
2017-Jan-14 20:33N 39°24' W 075°29'1212.5
2017-Jan-14 19:33N 39°14' W 075°18'1312.6
2017-Jan-14 18:33N 39°03' W 075°10'1611.4
2017-Jan-14 17:10N 38°48' W 075°03'5 8.3
2017-Jan-14 16:33N 38°45' W 074°58'20 9.8
2017-Jan-14 14:33N 38°30' W 074°42'1010.2
2017-Jan-14 13:32N 38°21' W 074°36'1713.3
2017-Jan-14 12:16N 38°05' W 074°27'  
2017-Jan-12 05:25N 26°33' W 079°36'1416.2
2017-Jan-12 04:33N 26°19' W 079°39'1616.0
2017-Jan-12 03:33N 26°03' W 079°41'1616.2
2017-Jan-12 02:33N 25°47' W 079°44'1616.2
2017-Jan-12 01:33N 25°31' W 079°47'  
Track history (hours):
 
Tides and Currents Weather Stations Pressure Air Temp Water Temp Dewpoint Dewpoint Depression Visibility Wind Speed Wind Dir Waves Ship Positions

African Loon

Last reported at 2017-Jan-17 12:33 UTC. Time now 2017-Jan-17 12:57 UTC.
Position N 39°54' W 075°08'.

Length 200 m; draft 6.7 m.

Type: Cargo ship. MMSI: 374319000.

Date/timePositionNaut miles runAvg speedWind from/ knotsBaromVisibWave heightAir tempDewpointWater temp
2017-Jan-17 12:33N 39°54' W 075°08'0 0.0
2017-Jan-17 11:33N 39°54' W 075°08'0 0.0
2017-Jan-17 10:33N 39°54' W 075°08'0 0.0
2017-Jan-17 09:33N 39°54' W 075°08'0 0.0
2017-Jan-17 08:33N 39°54' W 075°08'0 0.0
2017-Jan-17 07:33N 39°54' W 075°08'0 0.0
2017-Jan-17 06:33N 39°54' W 075°08'0 0.0
2017-Jan-17 05:33N 39°54' W 075°08'0 0.0
2017-Jan-17 04:33N 39°54' W 075°08'0 0.0
2017-Jan-17 03:32N 39°54' W 075°08'0 0.0
2017-Jan-17 02:29N 39°54' W 075°08'0 0.0
2017-Jan-17 01:24N 39°54' W 075°08'0 0.0
2017-Jan-17 00:33N 39°54' W 075°08'0 0.0
2017-Jan-16 23:28N 39°54' W 075°08'0 0.0
2017-Jan-16 22:31N 39°54' W 075°08'0 0.0
2017-Jan-16 21:33N 39°54' W 075°08'0 0.0
2017-Jan-16 20:33N 39°54' W 075°08'0 0.0
2017-Jan-16 19:33N 39°54' W 075°08'0 0.0
2017-Jan-16 18:33N 39°54' W 075°08'0 0.0
2017-Jan-16 17:33N 39°54' W 075°08'0 0.0
2017-Jan-16 16:33N 39°54' W 075°08'0 0.0
2017-Jan-16 15:33N 39°54' W 075°08'0 0.0
2017-Jan-16 14:30N 39°54' W 075°08'0 0.0
2017-Jan-16 13:33N 39°54' W 075°08'0 0.0
2017-Jan-16 12:33N 39°54' W 075°08'0 0.0
2017-Jan-16 11:33N 39°54' W 075°08'0 0.0
2017-Jan-16 10:33N 39°54' W 075°08'0 0.0
2017-Jan-16 09:33N 39°54' W 075°08'0 0.0
2017-Jan-16 08:33N 39°54' W 075°08'0 0.0
2017-Jan-16 07:33N 39°54' W 075°08'0 0.0
2017-Jan-16 06:33N 39°54' W 075°08'0 0.0
2017-Jan-16 05:33N 39°54' W 075°08'0 0.0
2017-Jan-16 04:33N 39°54' W 075°08'0 0.0
2017-Jan-16 03:33N 39°54' W 075°08'0 0.0
2017-Jan-16 02:33N 39°54' W 075°08'0 0.0
2017-Jan-16 01:33N 39°54' W 075°08'0 0.0
2017-Jan-16 00:33N 39°54' W 075°08'0 0.0
2017-Jan-15 23:33N 39°54' W 075°08'0 0.0
2017-Jan-15 22:33N 39°54' W 075°08'0 0.0
2017-Jan-15 21:33N 39°54' W 075°08'0 0.0
2017-Jan-15 20:33N 39°54' W 075°08'0 0.0
2017-Jan-15 19:33N 39°54' W 075°08'0 0.0
2017-Jan-15 18:33N 39°54' W 075°08'0 0.0
2017-Jan-15 17:33N 39°54' W 075°08'0 0.0
2017-Jan-15 16:33N 39°54' W 075°08'0 0.0
2017-Jan-15 15:33N 39°54' W 075°08'0 0.0
2017-Jan-15 14:33N 39°54' W 075°08'0 0.0
2017-Jan-15 13:33N 39°54' W 075°08'0 0.0
2017-Jan-15 12:12N 39°54' W 075°08'0 0.0
2017-Jan-15 11:33N 39°54' W 075°08'0 0.0
2017-Jan-15 10:33N 39°54' W 075°08'0 0.0
2017-Jan-15 09:33N 39°54' W 075°08'0 0.0
2017-Jan-15 08:33N 39°54' W 075°08'0 0.0
2017-Jan-15 07:33N 39°54' W 075°08'0 0.0
2017-Jan-15 06:30N 39°54' W 075°08'0 0.0
2017-Jan-15 05:33N 39°54' W 075°08'0 0.0
2017-Jan-15 04:33N 39°54' W 075°08'0 0.0
2017-Jan-15 03:33N 39°54' W 075°08'0 0.0
2017-Jan-15 02:33N 39°54' W 075°08'0 0.0
2017-Jan-15 01:33N 39°54' W 075°08'1 1.0
2017-Jan-15 00:33N 39°53' W 075°08'9 8.8
2017-Jan-14 23:33N 39°51' W 075°20'1010.1
2017-Jan-14 22:33N 39°45' W 075°30'1110.7
2017-Jan-14 21:33N 39°34' W 075°33'1111.1
2017-Jan-14 20:33N 39°24' W 075°29'1212.5
2017-Jan-14 19:33N 39°14' W 075°18'1312.6
2017-Jan-14 18:33N 39°03' W 075°10'1611.4
2017-Jan-14 17:10N 38°48' W 075°03'5 8.3
2017-Jan-14 16:33N 38°45' W 074°58'20 9.8
2017-Jan-14 14:33N 38°30' W 074°42'1010.2
2017-Jan-14 13:32N 38°21' W 074°36'1713.3
2017-Jan-14 12:16N 38°05' W 074°27'  
2017-Jan-12 05:25N 26°33' W 079°36'1416.2
2017-Jan-12 04:33N 26°19' W 079°39'1616.0
2017-Jan-12 03:33N 26°03' W 079°41'1616.2
2017-Jan-12 02:33N 25°47' W 079°44'1616.2
2017-Jan-12 01:33N 25°31' W 079°47'  

Dump ship's entire track history